Khalkh-Gol, Mongolia
Current Conditions -  °F | °C
As of 6:00 PM on Wednesday 22 Oct 2014 (Local Time) from UIAA Reporting Station
Broken Clouds Broken Clouds  
Wind Chill: 25°   Ceiling: 20000
Heat Index: 30°   Visibility: 6mi
Dew Point: 21°   Wind: 4mph
Humidity: 69%   Direction: NA
Pressure: 29.77"   Gusts: NA
Location:  47.62°N, 118.62°E
Report Text: UIAA 221000Z VRB02MPS 9999 FEW050 BKN200 M01/M06 Q1008 NOSIGRMK QFE698 29CLRD70
Loading
Personal Weather Stations






























Interactive Weather Map
Tropical Storm Tracking
New forecast layout! Learn more

10-Day Weather Forecast

Advertisements
Track Severe Weather on mobile